sensor_id;sensor_type;location;lat;lon;timestamp;temperature;humidity
21698;DHT22;11010;49.548;11.926;2023-04-24T00:02:16;12.00;99.90
21698;DHT22;11010;49.548;11.926;2023-04-24T00:04:44;12.10;99.90
21698;DHT22;11010;49.548;11.926;2023-04-24T00:07:12;12.20;99.90
21698;DHT22;11010;49.548;11.926;2023-04-24T00:09:40;12.30;99.90
21698;DHT22;11010;49.548;11.926;2023-04-24T00:12:08;12.30;99.90
21698;DHT22;11010;49.548;11.926;2023-04-24T00:14:36;12.30;99.90
21698;DHT22;11010;49.548;11.926;2023-04-24T00:17:03;12.30;99.90
21698;DHT22;11010;49.548;11.926;2023-04-24T00:19:31;12.30;99.90
21698;DHT22;11010;49.548;11.926;2023-04-24T00:21:58;12.20;99.90
21698;DHT22;11010;49.548;11.926;2023-04-24T00:24:25;12.20;99.90
21698;DHT22;11010;49.548;11.926;2023-04-24T00:26:53;12.20;99.90
21698;DHT22;11010;49.548;11.926;2023-04-24T00:29:20;12.20;99.90
21698;DHT22;11010;49.548;11.926;2023-04-24T00:31:48;12.20;99.90
21698;DHT22;11010;49.548;11.926;2023-04-24T00:34:15;12.20;99.90
21698;DHT22;11010;49.548;11.926;2023-04-24T00:36:43;12.10;99.90
21698;DHT22;11010;49.548;11.926;2023-04-24T00:39:10;12.00;99.90
21698;DHT22;11010;49.548;11.926;2023-04-24T00:41:37;12.00;99.90
21698;DHT22;11010;49.548;11.926;2023-04-24T00:44:05;12.00;99.90
21698;DHT22;11010;49.548;11.926;2023-04-24T00:46:32;11.90;99.90
21698;DHT22;11010;49.548;11.926;2023-04-24T00:49:00;11.80;99.90
21698;DHT22;11010;49.548;11.926;2023-04-24T00:51:27;11.80;99.90
21698;DHT22;11010;49.548;11.926;2023-04-24T00:53:55;11.90;99.90
21698;DHT22;11010;49.548;11.926;2023-04-24T00:56:23;11.90;99.90
21698;DHT22;11010;49.548;11.926;2023-04-24T00:58:50;11.50;99.90
21698;DHT22;11010;49.548;11.926;2023-04-24T01:01:22;11.40;99.90
21698;DHT22;11010;49.548;11.926;2023-04-24T01:03:52;11.50;99.90
21698;DHT22;11010;49.548;11.926;2023-04-24T01:06:22;11.60;99.90
21698;DHT22;11010;49.548;11.926;2023-04-24T01:08:50;11.50;99.90
21698;DHT22;11010;49.548;11.926;2023-04-24T01:11:18;11.60;99.90
21698;DHT22;11010;49.548;11.926;2023-04-24T01:13:46;11.40;99.90
21698;DHT22;11010;49.548;11.926;2023-04-24T01:16:14;11.50;99.90
21698;DHT22;11010;49.548;11.926;2023-04-24T01:18:44;11.60;99.90
21698;DHT22;11010;49.548;11.926;2023-04-24T01:21:14;11.50;99.90
21698;DHT22;11010;49.548;11.926;2023-04-24T01:23:44;11.60;99.90
21698;DHT22;11010;49.548;11.926;2023-04-24T01:26:14;11.40;99.90
21698;DHT22;11010;49.548;11.926;2023-04-24T01:28:41;11.30;99.90
21698;DHT22;11010;49.548;11.926;2023-04-24T01:31:09;11.20;99.90
21698;DHT22;11010;49.548;11.926;2023-04-24T01:33:37;11.10;99.90
21698;DHT22;11010;49.548;11.926;2023-04-24T01:36:04;11.10;99.90
21698;DHT22;11010;49.548;11.926;2023-04-24T01:38:32;11.00;99.90
21698;DHT22;11010;49.548;11.926;2023-04-24T01:41:00;10.80;99.90
21698;DHT22;11010;49.548;11.926;2023-04-24T01:43:29;10.90;99.90
21698;DHT22;11010;49.548;11.926;2023-04-24T01:45:57;10.90;99.90
21698;DHT22;11010;49.548;11.926;2023-04-24T01:48:24;10.70;99.90
21698;DHT22;11010;49.548;11.926;2023-04-24T01:50:52;10.70;99.90
21698;DHT22;11010;49.548;11.926;2023-04-24T01:53:20;10.70;99.90
21698;DHT22;11010;49.548;11.926;2023-04-24T01:55:47;10.90;99.90
21698;DHT22;11010;49.548;11.926;2023-04-24T01:58:15;11.20;99.90
21698;DHT22;11010;49.548;11.926;2023-04-24T02:00:42;11.40;99.90
21698;DHT22;11010;49.548;11.926;2023-04-24T02:03:10;11.60;99.90
21698;DHT22;11010;49.548;11.926;2023-04-24T02:05:37;11.60;99.90
21698;DHT22;11010;49.548;11.926;2023-04-24T02:08:05;11.50;99.90
21698;DHT22;11010;49.548;11.926;2023-04-24T02:10:36;11.50;99.90
21698;DHT22;11010;49.548;11.926;2023-04-24T02:13:04;11.50;99.90
21698;DHT22;11010;49.548;11.926;2023-04-24T02:15:32;11.20;99.90
21698;DHT22;11010;49.548;11.926;2023-04-24T02:17:59;11.40;99.90
21698;DHT22;11010;49.548;11.926;2023-04-24T02:20:27;11.20;99.90
21698;DHT22;11010;49.548;11.926;2023-04-24T02:22:54;11.10;99.90
21698;DHT22;11010;49.548;11.926;2023-04-24T02:25:22;11.10;99.90
21698;DHT22;11010;49.548;11.926;2023-04-24T02:27:49;10.70;99.90
21698;DHT22;11010;49.548;11.926;2023-04-24T02:30:17;10.80;99.90
21698;DHT22;11010;49.548;11.926;2023-04-24T02:32:44;10.90;99.90
21698;DHT22;11010;49.548;11.926;2023-04-24T02:35:12;10.60;99.90
21698;DHT22;11010;49.548;11.926;2023-04-24T02:37:39;10.80;99.90
21698;DHT22;11010;49.548;11.926;2023-04-24T02:40:07;11.10;99.90
21698;DHT22;11010;49.548;11.926;2023-04-24T02:42:35;11.00;99.90
21698;DHT22;11010;49.548;11.926;2023-04-24T02:45:03;10.90;99.90
21698;DHT22;11010;49.548;11.926;2023-04-24T02:47:30;11.00;99.90
21698;DHT22;11010;49.548;11.926;2023-04-24T02:49:59;10.70;99.90
21698;DHT22;11010;49.548;11.926;2023-04-24T02:52:27;10.90;99.90
21698;DHT22;11010;49.548;11.926;2023-04-24T02:54:54;11.00;99.90
21698;DHT22;11010;49.548;11.926;2023-04-24T02:57:22;11.20;99.90
21698;DHT22;11010;49.548;11.926;2023-04-24T02:59:49;11.30;99.90
21698;DHT22;11010;49.548;11.926;2023-04-24T03:02:17;11.30;99.90
21698;DHT22;11010;49.548;11.926;2023-04-24T03:04:44;11.30;99.90
21698;DHT22;11010;49.548;11.926;2023-04-24T03:07:13;11.20;99.90
21698;DHT22;11010;49.548;11.926;2023-04-24T03:09:42;11.30;99.90
21698;DHT22;11010;49.548;11.926;2023-04-24T03:12:10;11.40;99.90
21698;DHT22;11010;49.548;11.926;2023-04-24T03:14:38;11.40;99.90
21698;DHT22;11010;49.548;11.926;2023-04-24T03:17:06;11.40;99.90
21698;DHT22;11010;49.548;11.926;2023-04-24T03:19:33;11.30;99.90
21698;DHT22;11010;49.548;11.926;2023-04-24T03:22:08;11.30;99.90
21698;DHT22;11010;49.548;11.926;2023-04-24T03:24:37;11.20;99.90
21698;DHT22;11010;49.548;11.926;2023-04-24T03:27:05;11.20;99.90
21698;DHT22;11010;49.548;11.926;2023-04-24T03:30:01;11.30;99.90
21698;DHT22;11010;49.548;11.926;2023-04-24T03:32:52;11.30;99.90
21698;DHT22;11010;49.548;11.926;2023-04-24T03:35:24;11.20;99.90
21698;DHT22;11010;49.548;11.926;2023-04-24T03:37:52;10.90;99.90
21698;DHT22;11010;49.548;11.926;2023-04-24T03:40:38;10.90;99.90
21698;DHT22;11010;49.548;11.926;2023-04-24T03:43:16;11.10;99.90
21698;DHT22;11010;49.548;11.926;2023-04-24T03:45:44;10.90;99.90
21698;DHT22;11010;49.548;11.926;2023-04-24T03:48:14;10.70;99.90
21698;DHT22;11010;49.548;11.926;2023-04-24T03:50:41;10.40;99.90
21698;DHT22;11010;49.548;11.926;2023-04-24T03:53:11;10.50;99.90
21698;DHT22;11010;49.548;11.926;2023-04-24T03:55:41;10.30;99.90
21698;DHT22;11010;49.548;11.926;2023-04-24T03:58:09;10.30;99.90
21698;DHT22;11010;49.548;11.926;2023-04-24T04:00:37;10.30;99.90
21698;DHT22;11010;49.548;11.926;2023-04-24T04:03:24;10.30;99.90
21698;DHT22;11010;49.548;11.926;2023-04-24T04:05:53;10.10;99.90
21698;DHT22;11010;49.548;11.926;2023-04-24T04:08:21;10.20;99.90
21698;DHT22;11010;49.548;11.926;2023-04-24T04:10:48;10.10;99.90
21698;DHT22;11010;49.548;11.926;2023-04-24T04:13:16;10.20;99.90
21698;DHT22;11010;49.548;11.926;2023-04-24T04:15:44;10.40;99.90
21698;DHT22;11010;49.548;11.926;2023-04-24T04:18:11;10.50;99.90
21698;DHT22;11010;49.548;11.926;2023-04-24T04:20:39;10.40;99.90
21698;DHT22;11010;49.548;11.926;2023-04-24T04:23:07;10.50;99.90
21698;DHT22;11010;49.548;11.926;2023-04-24T04:25:48;10.60;99.90
21698;DHT22;11010;49.548;11.926;2023-04-24T04:28:18;10.70;99.90
21698;DHT22;11010;49.548;11.926;2023-04-24T04:30:47;10.70;99.90
21698;DHT22;11010;49.548;11.926;2023-04-24T04:33:15;10.50;99.90
21698;DHT22;11010;49.548;11.926;2023-04-24T04:35:43;10.60;99.90
21698;DHT22;11010;49.548;11.926;2023-04-24T04:38:11;10.60;99.90
21698;DHT22;11010;49.548;11.926;2023-04-24T04:40:46;10.80;99.90
21698;DHT22;11010;49.548;11.926;2023-04-24T04:43:15;10.70;99.90
21698;DHT22;11010;49.548;11.926;2023-04-24T04:45:49;10.70;99.90
21698;DHT22;11010;49.548;11.926;2023-04-24T04:48:36;10.50;99.90
21698;DHT22;11010;49.548;11.926;2023-04-24T04:51:06;10.60;99.90
21698;DHT22;11010;49.548;11.926;2023-04-24T04:53:33;10.60;99.90
21698;DHT22;11010;49.548;11.926;2023-04-24T04:56:02;10.60;99.90
21698;DHT22;11010;49.548;11.926;2023-04-24T04:58:39;10.50;99.90
21698;DHT22;11010;49.548;11.926;2023-04-24T05:01:10;10.50;99.90
21698;DHT22;11010;49.548;11.926;2023-04-24T05:03:41;10.40;99.90
21698;DHT22;11010;49.548;11.926;2023-04-24T05:06:12;10.60;99.90
21698;DHT22;11010;49.548;11.926;2023-04-24T05:08:40;10.50;99.90
21698;DHT22;11010;49.548;11.926;2023-04-24T05:11:13;10.50;99.90
21698;DHT22;11010;49.548;11.926;2023-04-24T05:13:41;10.60;99.90
21698;DHT22;11010;49.548;11.926;2023-04-24T05:16:14;10.60;99.90
21698;DHT22;11010;49.548;11.926;2023-04-24T05:18:42;10.40;99.90
21698;DHT22;11010;49.548;11.926;2023-04-24T05:21:13;10.40;99.90
21698;DHT22;11010;49.548;11.926;2023-04-24T05:23:44;10.60;99.90
21698;DHT22;11010;49.548;11.926;2023-04-24T05:26:15;10.20;99.90
21698;DHT22;11010;49.548;11.926;2023-04-24T05:28:43;10.40;99.90
21698;DHT22;11010;49.548;11.926;2023-04-24T05:31:12;10.30;99.90
21698;DHT22;11010;49.548;11.926;2023-04-24T05:33:40;10.30;99.90
21698;DHT22;11010;49.548;11.926;2023-04-24T05:36:08;10.40;99.90
21698;DHT22;11010;49.548;11.926;2023-04-24T05:38:35;10.40;99.90
21698;DHT22;11010;49.548;11.926;2023-04-24T05:41:04;10.60;99.90
21698;DHT22;11010;49.548;11.926;2023-04-24T05:43:31;10.50;99.90
21698;DHT22;11010;49.548;11.926;2023-04-24T05:45:59;10.70;99.90
21698;DHT22;11010;49.548;11.926;2023-04-24T05:48:27;10.80;99.90
21698;DHT22;11010;49.548;11.926;2023-04-24T05:50:54;10.80;99.90
21698;DHT22;11010;49.548;11.926;2023-04-24T05:53:23;10.70;99.90
21698;DHT22;11010;49.548;11.926;2023-04-24T05:55:51;10.90;99.90
21698;DHT22;11010;49.548;11.926;2023-04-24T05:58:18;11.00;99.90
21698;DHT22;11010;49.548;11.926;2023-04-24T06:00:47;11.10;99.90
21698;DHT22;11010;49.548;11.926;2023-04-24T06:03:15;10.80;99.90
21698;DHT22;11010;49.548;11.926;2023-04-24T06:05:43;10.80;99.90
21698;DHT22;11010;49.548;11.926;2023-04-24T06:08:12;11.00;99.90
21698;DHT22;11010;49.548;11.926;2023-04-24T06:10:42;11.00;99.90
21698;DHT22;11010;49.548;11.926;2023-04-24T06:13:10;11.10;99.90
21698;DHT22;11010;49.548;11.926;2023-04-24T06:15:43;10.90;99.90
21698;DHT22;11010;49.548;11.926;2023-04-24T06:18:16;10.90;99.90
21698;DHT22;11010;49.548;11.926;2023-04-24T06:20:44;10.90;99.90
21698;DHT22;11010;49.548;11.926;2023-04-24T06:23:12;11.00;99.90
21698;DHT22;11010;49.548;11.926;2023-04-24T06:25:39;11.00;99.90
21698;DHT22;11010;49.548;11.926;2023-04-24T06:28:07;11.10;99.90
21698;DHT22;11010;49.548;11.926;2023-04-24T06:30:34;11.20;99.90
21698;DHT22;11010;49.548;11.926;2023-04-24T06:33:02;11.30;99.90
21698;DHT22;11010;49.548;11.926;2023-04-24T06:35:46;10.90;99.90
21698;DHT22;11010;49.548;11.926;2023-04-24T06:38:14;11.00;99.90
21698;DHT22;11010;49.548;11.926;2023-04-24T06:40:43;11.00;99.90
21698;DHT22;11010;49.548;11.926;2023-04-24T06:43:38;11.10;99.90
21698;DHT22;11010;49.548;11.926;2023-04-24T06:46:05;11.10;99.90
21698;DHT22;11010;49.548;11.926;2023-04-24T06:48:32;11.20;99.90
21698;DHT22;11010;49.548;11.926;2023-04-24T06:50:59;11.20;99.90
21698;DHT22;11010;49.548;11.926;2023-04-24T06:53:26;11.30;99.90
21698;DHT22;11010;49.548;11.926;2023-04-24T06:55:54;11.20;99.90
21698;DHT22;11010;49.548;11.926;2023-04-24T06:58:21;11.10;99.90
21698;DHT22;11010;49.548;11.926;2023-04-24T07:00:48;11.30;99.90
21698;DHT22;11010;49.548;11.926;2023-04-24T07:03:15;11.40;99.90
21698;DHT22;11010;49.548;11.926;2023-04-24T07:05:43;11.30;99.90
21698;DHT22;11010;49.548;11.926;2023-04-24T07:08:10;11.40;99.90
21698;DHT22;11010;49.548;11.926;2023-04-24T07:10:38;11.50;99.90
21698;DHT22;11010;49.548;11.926;2023-04-24T07:13:05;11.70;99.90
21698;DHT22;11010;49.548;11.926;2023-04-24T07:15:33;11.40;99.90
21698;DHT22;11010;49.548;11.926;2023-04-24T07:18:00;11.50;99.90
21698;DHT22;11010;49.548;11.926;2023-04-24T07:20:31;11.50;99.90
21698;DHT22;11010;49.548;11.926;2023-04-24T07:23:00;11.60;99.90
21698;DHT22;11010;49.548;11.926;2023-04-24T07:25:27;11.70;99.90
21698;DHT22;11010;49.548;11.926;2023-04-24T07:27:54;11.60;99.90
21698;DHT22;11010;49.548;11.926;2023-04-24T07:30:22;11.60;99.90
21698;DHT22;11010;49.548;11.926;2023-04-24T07:32:49;11.60;99.90
21698;DHT22;11010;49.548;11.926;2023-04-24T07:35:16;11.70;99.90
21698;DHT22;11010;49.548;11.926;2023-04-24T07:37:43;11.70;99.90
21698;DHT22;11010;49.548;11.926;2023-04-24T07:40:13;11.70;99.90
21698;DHT22;11010;49.548;11.926;2023-04-24T07:42:40;11.70;99.90
21698;DHT22;11010;49.548;11.926;2023-04-24T07:45:08;11.60;99.90
21698;DHT22;11010;49.548;11.926;2023-04-24T07:47:36;11.50;99.90
21698;DHT22;11010;49.548;11.926;2023-04-24T07:50:04;11.30;99.90
21698;DHT22;11010;49.548;11.926;2023-04-24T07:52:31;11.30;99.90
21698;DHT22;11010;49.548;11.926;2023-04-24T07:54:59;11.20;99.90
21698;DHT22;11010;49.548;11.926;2023-04-24T07:57:27;11.00;99.90
21698;DHT22;11010;49.548;11.926;2023-04-24T07:59:55;10.80;99.90
21698;DHT22;11010;49.548;11.926;2023-04-24T08:02:22;10.80;99.90
21698;DHT22;11010;49.548;11.926;2023-04-24T08:04:53;10.90;99.90
21698;DHT22;11010;49.548;11.926;2023-04-24T08:07:22;10.90;99.90
21698;DHT22;11010;49.548;11.926;2023-04-24T08:09:49;11.10;99.90
21698;DHT22;11010;49.548;11.926;2023-04-24T08:12:17;11.30;99.90
21698;DHT22;11010;49.548;11.926;2023-04-24T08:14:46;11.40;99.90
21698;DHT22;11010;49.548;11.926;2023-04-24T08:17:14;11.20;99.90
21698;DHT22;11010;49.548;11.926;2023-04-24T08:19:41;11.30;99.90
21698;DHT22;11010;49.548;11.926;2023-04-24T08:22:15;11.30;99.90
21698;DHT22;11010;49.548;11.926;2023-04-24T08:24:42;11.40;99.90
21698;DHT22;11010;49.548;11.926;2023-04-24T08:27:10;11.50;99.90
21698;DHT22;11010;49.548;11.926;2023-04-24T08:29:37;11.30;99.90
21698;DHT22;11010;49.548;11.926;2023-04-24T08:32:04;11.40;99.90
21698;DHT22;11010;49.548;11.926;2023-04-24T08:34:32;11.50;99.90
21698;DHT22;11010;49.548;11.926;2023-04-24T08:36:59;11.50;99.90
21698;DHT22;11010;49.548;11.926;2023-04-24T08:39:29;11.70;99.90
21698;DHT22;11010;49.548;11.926;2023-04-24T08:41:56;11.90;99.90
21698;DHT22;11010;49.548;11.926;2023-04-24T08:44:24;12.20;99.90
21698;DHT22;11010;49.548;11.926;2023-04-24T08:46:55;12.10;99.90
21698;DHT22;11010;49.548;11.926;2023-04-24T08:49:24;11.80;99.90
21698;DHT22;11010;49.548;11.926;2023-04-24T08:51:52;12.00;99.90
21698;DHT22;11010;49.548;11.926;2023-04-24T08:54:20;11.90;99.90
21698;DHT22;11010;49.548;11.926;2023-04-24T08:56:48;11.90;99.90
21698;DHT22;11010;49.548;11.926;2023-04-24T08:59:16;11.70;99.90
21698;DHT22;11010;49.548;11.926;2023-04-24T09:01:44;11.70;99.90
21698;DHT22;11010;49.548;11.926;2023-04-24T09:04:14;11.70;99.90
21698;DHT22;11010;49.548;11.926;2023-04-24T09:06:43;11.70;99.90
21698;DHT22;11010;49.548;11.926;2023-04-24T09:09:11;11.70;99.90
21698;DHT22;11010;49.548;11.926;2023-04-24T09:11:38;11.80;99.90
21698;DHT22;11010;49.548;11.926;2023-04-24T09:14:06;11.90;99.90
21698;DHT22;11010;49.548;11.926;2023-04-24T09:16:36;12.10;99.90
21698;DHT22;11010;49.548;11.926;2023-04-24T09:19:03;12.30;99.90
21698;DHT22;11010;49.548;11.926;2023-04-24T09:21:35;12.40;99.90
21698;DHT22;11010;49.548;11.926;2023-04-24T09:24:07;12.00;99.90
21698;DHT22;11010;49.548;11.926;2023-04-24T09:26:35;11.90;99.90
21698;DHT22;11010;49.548;11.926;2023-04-24T09:29:04;12.10;99.90
21698;DHT22;11010;49.548;11.926;2023-04-24T09:31:31;11.90;99.90
21698;DHT22;11010;49.548;11.926;2023-04-24T09:34:04;11.90;99.90
21698;DHT22;11010;49.548;11.926;2023-04-24T09:36:39;11.90;99.90
21698;DHT22;11010;49.548;11.926;2023-04-24T09:39:10;11.90;99.90
21698;DHT22;11010;49.548;11.926;2023-04-24T09:41:54;12.10;99.90
21698;DHT22;11010;49.548;11.926;2023-04-24T09:44:27;11.90;99.90
21698;DHT22;11010;49.548;11.926;2023-04-24T09:46:56;11.70;99.90
21698;DHT22;11010;49.548;11.926;2023-04-24T09:49:25;11.60;99.90
21698;DHT22;11010;49.548;11.926;2023-04-24T09:52:06;11.50;99.90
21698;DHT22;11010;49.548;11.926;2023-04-24T09:54:33;11.70;99.90
21698;DHT22;11010;49.548;11.926;2023-04-24T09:57:01;11.80;99.90
21698;DHT22;11010;49.548;11.926;2023-04-24T09:59:28;11.90;99.90
21698;DHT22;11010;49.548;11.926;2023-04-24T10:01:55;12.20;99.90
21698;DHT22;11010;49.548;11.926;2023-04-24T10:04:26;12.60;99.90
21698;DHT22;11010;49.548;11.926;2023-04-24T10:06:55;12.90;99.90
21698;DHT22;11010;49.548;11.926;2023-04-24T10:09:24;12.60;99.90
21698;DHT22;11010;49.548;11.926;2023-04-24T10:11:53;12.70;99.90
21698;DHT22;11010;49.548;11.926;2023-04-24T10:14:25;12.40;99.90
21698;DHT22;11010;49.548;11.926;2023-04-24T10:16:55;12.20;99.90
21698;DHT22;11010;49.548;11.926;2023-04-24T10:19:26;12.40;99.90
21698;DHT22;11010;49.548;11.926;2023-04-24T10:21:53;12.60;99.90
21698;DHT22;11010;49.548;11.926;2023-04-24T10:24:22;12.40;99.90
21698;DHT22;11010;49.548;11.926;2023-04-24T10:26:49;12.30;99.90
21698;DHT22;11010;49.548;11.926;2023-04-24T10:29:19;12.30;99.90
21698;DHT22;11010;49.548;11.926;2023-04-24T10:31:48;12.20;99.90
21698;DHT22;11010;49.548;11.926;2023-04-24T10:34:17;12.70;99.90
21698;DHT22;11010;49.548;11.926;2023-04-24T10:36:49;12.60;99.90
21698;DHT22;11010;49.548;11.926;2023-04-24T10:39:18;12.70;99.90
21698;DHT22;11010;49.548;11.926;2023-04-24T10:41:55;12.60;99.90
21698;DHT22;11010;49.548;11.926;2023-04-24T10:44:24;12.60;99.90
21698;DHT22;11010;49.548;11.926;2023-04-24T10:46:55;12.50;99.90
21698;DHT22;11010;49.548;11.926;2023-04-24T10:49:30;12.40;99.90
21698;DHT22;11010;49.548;11.926;2023-04-24T10:52:02;12.40;99.90
21698;DHT22;11010;49.548;11.926;2023-04-24T10:54:36;12.70;99.90
21698;DHT22;11010;49.548;11.926;2023-04-24T10:59:51;13.40;99.90
21698;DHT22;11010;49.548;11.926;2023-04-24T11:02:36;13.30;99.90
21698;DHT22;11010;49.548;11.926;2023-04-24T11:05:04;13.00;99.90
21698;DHT22;11010;49.548;11.926;2023-04-24T11:10:44;12.90;99.90
21698;DHT22;11010;49.548;11.926;2023-04-24T11:13:17;13.20;99.90
21698;DHT22;11010;49.548;11.926;2023-04-24T11:18:43;14.10;99.90
21698;DHT22;11010;49.548;11.926;2023-04-24T11:21:13;13.90;99.90
21698;DHT22;11010;49.548;11.926;2023-04-24T11:23:40;14.10;99.90
21698;DHT22;11010;49.548;11.926;2023-04-24T11:26:19;14.40;99.90
21698;DHT22;11010;49.548;11.926;2023-04-24T11:28:50;14.20;99.90
21698;DHT22;11010;49.548;11.926;2023-04-24T11:31:37;14.20;99.90
21698;DHT22;11010;49.548;11.926;2023-04-24T11:34:13;13.80;99.90
21698;DHT22;11010;49.548;11.926;2023-04-24T11:36:43;13.50;99.90
21698;DHT22;11010;49.548;11.926;2023-04-24T11:39:11;13.40;99.90
21698;DHT22;11010;49.548;11.926;2023-04-24T11:41:39;13.50;99.90
21698;DHT22;11010;49.548;11.926;2023-04-24T11:44:07;13.90;99.90
21698;DHT22;11010;49.548;11.926;2023-04-24T11:46:35;14.50;99.90
21698;DHT22;11010;49.548;11.926;2023-04-24T11:49:05;14.50;99.90
21698;DHT22;11010;49.548;11.926;2023-04-24T11:51:32;13.80;99.90
21698;DHT22;11010;49.548;11.926;2023-04-24T11:54:18;13.30;99.90
21698;DHT22;11010;49.548;11.926;2023-04-24T11:56:47;13.10;99.90
21698;DHT22;11010;49.548;11.926;2023-04-24T11:59:14;13.00;99.90
21698;DHT22;11010;49.548;11.926;2023-04-24T12:01:47;12.70;99.90
21698;DHT22;11010;49.548;11.926;2023-04-24T12:04:16;12.70;99.90
21698;DHT22;11010;49.548;11.926;2023-04-24T12:07:00;12.70;99.90
21698;DHT22;11010;49.548;11.926;2023-04-24T12:09:27;12.50;99.90
21698;DHT22;11010;49.548;11.926;2023-04-24T12:11:56;12.50;99.90
21698;DHT22;11010;49.548;11.926;2023-04-24T12:14:26;12.30;99.90
21698;DHT22;11010;49.548;11.926;2023-04-24T12:16:53;12.10;99.90
21698;DHT22;11010;49.548;11.926;2023-04-24T12:19:21;12.20;99.90
21698;DHT22;11010;49.548;11.926;2023-04-24T12:22:05;12.60;99.90
21698;DHT22;11010;49.548;11.926;2023-04-24T12:24:32;12.90;99.90
21698;DHT22;11010;49.548;11.926;2023-04-24T12:27:00;12.90;99.90
21698;DHT22;11010;49.548;11.926;2023-04-24T12:29:28;13.10;99.90
21698;DHT22;11010;49.548;11.926;2023-04-24T12:31:55;13.00;99.90
21698;DHT22;11010;49.548;11.926;2023-04-24T12:34:24;12.70;99.90
21698;DHT22;11010;49.548;11.926;2023-04-24T12:36:52;12.70;99.90
21698;DHT22;11010;49.548;11.926;2023-04-24T12:39:19;12.70;99.90
21698;DHT22;11010;49.548;11.926;2023-04-24T12:41:56;12.80;99.90
21698;DHT22;11010;49.548;11.926;2023-04-24T12:44:31;13.20;99.90
21698;DHT22;11010;49.548;11.926;2023-04-24T12:46:59;13.60;99.90
21698;DHT22;11010;49.548;11.926;2023-04-24T12:49:26;13.50;99.90
21698;DHT22;11010;49.548;11.926;2023-04-24T12:51:54;13.30;99.90
21698;DHT22;11010;49.548;11.926;2023-04-24T12:54:22;13.40;99.90
21698;DHT22;11010;49.548;11.926;2023-04-24T12:56:49;13.00;99.90
21698;DHT22;11010;49.548;11.926;2023-04-24T12:59:16;12.60;99.90
21698;DHT22;11010;49.548;11.926;2023-04-24T13:01:43;12.60;99.90
21698;DHT22;11010;49.548;11.926;2023-04-24T13:04:10;12.30;99.90
21698;DHT22;11010;49.548;11.926;2023-04-24T13:06:38;11.90;99.90
21698;DHT22;11010;49.548;11.926;2023-04-24T13:09:05;11.50;99.90
21698;DHT22;11010;49.548;11.926;2023-04-24T13:11:32;11.60;99.90
21698;DHT22;11010;49.548;11.926;2023-04-24T13:13:59;11.70;99.90
21698;DHT22;11010;49.548;11.926;2023-04-24T13:16:26;12.00;99.90
21698;DHT22;11010;49.548;11.926;2023-04-24T13:18:54;12.20;99.90
21698;DHT22;11010;49.548;11.926;2023-04-24T13:21:21;11.90;99.90
21698;DHT22;11010;49.548;11.926;2023-04-24T13:23:49;11.80;99.90
21698;DHT22;11010;49.548;11.926;2023-04-24T13:26:16;11.90;99.90
21698;DHT22;11010;49.548;11.926;2023-04-24T13:28:43;12.10;99.90
21698;DHT22;11010;49.548;11.926;2023-04-24T13:31:10;12.30;99.90
21698;DHT22;11010;49.548;11.926;2023-04-24T13:33:38;12.60;99.90
21698;DHT22;11010;49.548;11.926;2023-04-24T13:36:05;12.80;99.90
21698;DHT22;11010;49.548;11.926;2023-04-24T13:38:32;13.30;99.90
21698;DHT22;11010;49.548;11.926;2023-04-24T13:41:00;13.50;99.90
21698;DHT22;11010;49.548;11.926;2023-04-24T13:43:27;13.20;99.90
21698;DHT22;11010;49.548;11.926;2023-04-24T13:45:54;12.80;99.90
21698;DHT22;11010;49.548;11.926;2023-04-24T13:48:21;12.60;99.90
21698;DHT22;11010;49.548;11.926;2023-04-24T13:50:48;12.50;99.90
21698;DHT22;11010;49.548;11.926;2023-04-24T13:53:17;12.30;99.90
21698;DHT22;11010;49.548;11.926;2023-04-24T13:55:44;12.30;99.90
21698;DHT22;11010;49.548;11.926;2023-04-24T13:58:11;12.10;99.90
21698;DHT22;11010;49.548;11.926;2023-04-24T14:00:38;11.90;99.90
21698;DHT22;11010;49.548;11.926;2023-04-24T14:03:05;12.00;99.90
21698;DHT22;11010;49.548;11.926;2023-04-24T14:05:33;12.10;99.90
21698;DHT22;11010;49.548;11.926;2023-04-24T14:08:02;12.30;99.90
21698;DHT22;11010;49.548;11.926;2023-04-24T14:10:29;12.30;99.90
21698;DHT22;11010;49.548;11.926;2023-04-24T14:12:56;12.00;99.90
21698;DHT22;11010;49.548;11.926;2023-04-24T14:15:24;11.90;99.90
21698;DHT22;11010;49.548;11.926;2023-04-24T14:17:51;11.90;99.90
21698;DHT22;11010;49.548;11.926;2023-04-24T14:20:18;12.00;99.90
21698;DHT22;11010;49.548;11.926;2023-04-24T14:22:46;12.10;99.90
21698;DHT22;11010;49.548;11.926;2023-04-24T14:25:13;12.40;99.90
21698;DHT22;11010;49.548;11.926;2023-04-24T14:27:40;12.40;99.90
21698;DHT22;11010;49.548;11.926;2023-04-24T14:30:08;12.50;99.90
21698;DHT22;11010;49.548;11.926;2023-04-24T14:32:35;12.50;99.90
21698;DHT22;11010;49.548;11.926;2023-04-24T14:35:03;12.30;99.90
21698;DHT22;11010;49.548;11.926;2023-04-24T14:37:30;12.40;99.90
21698;DHT22;11010;49.548;11.926;2023-04-24T14:39:57;12.20;99.90
21698;DHT22;11010;49.548;11.926;2023-04-24T14:42:44;12.30;99.90
21698;DHT22;11010;49.548;11.926;2023-04-24T14:45:12;12.30;99.90
21698;DHT22;11010;49.548;11.926;2023-04-24T14:47:39;12.30;99.90
21698;DHT22;11010;49.548;11.926;2023-04-24T14:50:07;12.30;99.90
21698;DHT22;11010;49.548;11.926;2023-04-24T14:52:35;12.50;99.90
21698;DHT22;11010;49.548;11.926;2023-04-24T14:55:02;12.20;99.90
21698;DHT22;11010;49.548;11.926;2023-04-24T14:57:31;12.00;99.90
21698;DHT22;11010;49.548;11.926;2023-04-24T14:59:58;12.30;99.90
21698;DHT22;11010;49.548;11.926;2023-04-24T15:02:25;12.20;99.90
21698;DHT22;11010;49.548;11.926;2023-04-24T15:04:53;12.40;99.90
21698;DHT22;11010;49.548;11.926;2023-04-24T15:07:20;12.50;99.90
21698;DHT22;11010;49.548;11.926;2023-04-24T15:09:47;13.00;99.90
21698;DHT22;11010;49.548;11.926;2023-04-24T15:12:15;13.10;99.90
21698;DHT22;11010;49.548;11.926;2023-04-24T15:14:42;12.80;99.90
21698;DHT22;11010;49.548;11.926;2023-04-24T15:17:09;12.40;99.90
21698;DHT22;11010;49.548;11.926;2023-04-24T15:19:36;12.60;99.90
21698;DHT22;11010;49.548;11.926;2023-04-24T15:22:03;12.90;99.90
21698;DHT22;11010;49.548;11.926;2023-04-24T15:24:30;12.70;99.90
21698;DHT22;11010;49.548;11.926;2023-04-24T15:26:59;12.90;99.90
21698;DHT22;11010;49.548;11.926;2023-04-24T15:29:27;13.10;99.90
21698;DHT22;11010;49.548;11.926;2023-04-24T15:31:54;13.00;99.90
21698;DHT22;11010;49.548;11.926;2023-04-24T15:34:22;12.90;99.90
21698;DHT22;11010;49.548;11.926;2023-04-24T15:36:49;13.10;99.90